Time;durP1;ratioP1;P1;durP2;ratioP2;P2;SDS_P1;SDS_P2;PMS_P1;PMS_P2;Temp;Humidity;BMP_temperature;BMP_pressure;BME280_temperature;BME280_humidity;BME280_pressure;Samples;Min_cycle;Max_cycle;Signal;HPM_P1;HPM_P2
2022/03/10 00:02:25;;;;;;;16.03;9.50;;;3.80;1.00;;;;;;5089253;28;20194;-61
2022/03/10 00:04:51;;;;;;;14.77;9.53;;;3.80;1.00;;;;;;5095964;28;20604;-61
2022/03/10 00:07:16;;;;;;;10.40;8.40;;;3.80;1.00;;;;;;5088938;28;20216;-63
2022/03/10 00:09:42;;;;;;;13.33;9.80;;;3.70;1.00;;;;;;5091677;28;20269;-63
2022/03/10 00:12:07;;;;;;;12.17;8.90;;;3.60;1.00;;;;;;5087928;28;21736;-63
2022/03/10 00:14:33;;;;;;;11.17;7.97;;;3.60;1.00;;;;;;5090531;28;20187;-61
2022/03/10 00:16:59;;;;;;;12.10;9.00;;;3.50;1.00;;;;;;5089213;28;20278;-62
2022/03/10 00:19:25;;;;;;;9.13;7.20;;;3.50;1.00;;;;;;5089729;28;20190;-62
2022/03/10 00:21:51;;;;;;;10.80;8.20;;;3.40;1.00;;;;;;5091055;28;20444;-62
2022/03/10 00:24:20;;;;;;;14.13;8.67;;;3.40;1.00;;;;;;5096073;28;20189;-63
2022/03/10 00:26:46;;;;;;;9.13;7.50;;;3.50;1.00;;;;;;5091066;28;20524;-62
2022/03/10 00:29:11;;;;;;;9.50;7.53;;;3.50;1.00;;;;;;5087307;28;20453;-62
2022/03/10 00:31:37;;;;;;;11.30;7.73;;;3.40;1.00;;;;;;5094071;28;22242;-63
2022/03/10 00:34:03;;;;;;;12.37;8.43;;;3.40;1.00;;;;;;5097290;28;20202;-62
2022/03/10 00:36:29;;;;;;;12.73;7.20;;;3.40;1.00;;;;;;5092975;28;20217;-62
2022/03/10 00:38:55;;;;;;;10.87;8.20;;;3.40;1.00;;;;;;5095776;28;20441;-63
2022/03/10 00:41:21;;;;;;;11.67;8.37;;;3.40;1.00;;;;;;5092488;28;20566;-63
2022/03/10 00:43:47;;;;;;;11.90;8.63;;;3.40;1.00;;;;;;5093474;28;20780;-63
2022/03/10 00:46:12;;;;;;;9.87;7.13;;;3.40;1.00;;;;;;5090466;28;20474;-64
2022/03/10 00:48:38;;;;;;;10.33;7.87;;;3.30;1.00;;;;;;5093717;28;20232;-61
2022/03/10 00:51:05;;;;;;;11.33;8.00;;;3.30;1.00;;;;;;5096329;28;20190;-62
2022/03/10 00:53:30;;;;;;;9.20;7.33;;;4.40;1.00;;;;;;5093131;28;20440;-63
2022/03/10 00:55:57;;;;;;;12.50;8.13;;;;;;;;;;5095989;28;20825;-63
2022/03/10 00:58:22;;;;;;;11.20;7.90;;;3.30;1.00;;;;;;5092948;28;20452;-61
2022/03/10 01:00:48;;;;;;;8.40;7.00;;;3.30;1.00;;;;;;5095233;28;20448;-63
2022/03/10 01:03:13;;;;;;;8.87;7.37;;;3.40;1.00;;;;;;5105935;28;20185;-63
2022/03/10 01:05:39;;;;;;;11.90;6.83;;;;;;;;;;5092018;28;20191;-63
2022/03/10 01:08:05;;;;;;;11.87;7.50;;;3.30;1.00;;;;;;5090746;28;20244;-62
2022/03/10 01:10:31;;;;;;;13.93;8.50;;;3.30;1.00;;;;;;5091274;28;20438;-63
2022/03/10 01:12:56;;;;;;;9.20;6.80;;;;;;;;;;5095614;28;20198;-62
2022/03/10 01:15:25;;;;;;;10.43;7.00;;;3.20;1.00;;;;;;5091916;28;20186;-62
2022/03/10 01:17:51;;;;;;;11.10;8.40;;;3.10;1.00;;;;;;5087467;28;21208;-63
2022/03/10 01:20:18;;;;;;;10.80;7.50;;;3.00;1.00;;;;;;5093699;28;20929;-61
2022/03/10 01:22:44;;;;;;;10.67;7.13;;;3.00;1.00;;;;;;5089882;28;20452;-63
2022/03/10 01:25:10;;;;;;;9.57;7.00;;;3.00;1.00;;;;;;5092609;28;20542;-62
2022/03/10 01:27:36;;;;;;;8.30;7.40;;;3.00;1.00;;;;;;5093845;28;20481;-61
2022/03/10 01:30:03;;;;;;;10.87;7.43;;;3.00;1.00;;;;;;5092852;28;20182;-62
2022/03/10 01:32:29;;;;;;;11.27;8.30;;;3.00;1.00;;;;;;5097075;28;20227;-62
2022/03/10 01:34:54;;;;;;;13.63;8.10;;;3.10;1.00;;;;;;5088994;28;20512;-62
2022/03/10 01:37:20;;;;;;;8.33;6.97;;;;;;;;;;5098653;28;20182;-63
2022/03/10 01:39:47;;;;;;;8.40;7.53;;;3.10;1.00;;;;;;5092222;28;20542;-63
2022/03/10 01:42:13;;;;;;;9.27;7.30;;;3.10;1.00;;;;;;5092130;28;20453;-62
2022/03/10 01:44:38;;;;;;;9.43;6.77;;;3.10;1.00;;;;;;5092170;28;20484;-63
2022/03/10 01:47:06;;;;;;;11.87;7.70;;;3.00;1.00;;;;;;5092746;28;20569;-62
2022/03/10 01:49:34;;;;;;;10.77;7.67;;;3.00;1.00;;;;;;5092196;28;20994;-61
2022/03/10 01:52:01;;;;;;;10.57;7.20;;;2.90;1.00;;;;;;5089784;28;20544;-62
2022/03/10 01:54:27;;;;;;;11.53;7.80;;;2.90;1.00;;;;;;5090156;28;22114;-61
2022/03/10 01:56:53;;;;;;;10.20;7.43;;;4.90;1.00;;;;;;5090450;28;20433;-62
2022/03/10 01:59:19;;;;;;;8.60;6.93;;;2.90;1.00;;;;;;5091475;28;20195;-62
2022/03/10 02:01:45;;;;;;;8.23;7.07;;;;;;;;;;5093699;28;22173;-61
2022/03/10 02:04:11;;;;;;;9.17;7.57;;;2.70;1.00;;;;;;5092148;28;20460;-61
2022/03/10 02:06:37;;;;;;;10.10;7.40;;;2.80;1.00;;;;;;5093390;28;20445;-62
2022/03/10 02:11:51;;;;;;;9.50;7.13;;;2.70;1.00;;;;;;5091833;28;20309;-63
2022/03/10 02:17:19;;;;;;;12.10;7.83;;;;;;;;;;5086764;28;20458;-62
2022/03/10 02:19:45;;;;;;;9.00;6.80;;;2.60;1.00;;;;;;5091349;28;20444;-61
2022/03/10 02:22:13;;;;;;;10.03;7.20;;;2.60;1.00;;;;;;5086648;28;20444;-62
2022/03/10 02:24:40;;;;;;;10.90;7.43;;;2.60;1.00;;;;;;5088626;28;20463;-64
2022/03/10 02:27:23;;;;;;;13.00;8.00;;;2.70;1.00;;;;;;5090000;28;20464;-61
2022/03/10 02:29:54;;;;;;;11.77;7.77;;;2.60;1.00;;;;;;5088599;28;21103;-62
2022/03/10 02:32:21;;;;;;;10.83;7.47;;;2.70;1.00;;;;;;5086391;28;20475;-63
2022/03/10 02:34:47;;;;;;;11.57;7.53;;;;;;;;;;5088348;28;20445;-63
2022/03/10 02:37:13;;;;;;;9.70;8.03;;;2.50;1.00;;;;;;5088536;28;20527;-61
2022/03/10 02:39:40;;;;;;;8.17;7.07;;;2.40;1.00;;;;;;5094655;28;20452;-62
2022/03/10 02:42:06;;;;;;;11.93;9.07;;;2.40;1.00;;;;;;5090176;28;20941;-62
2022/03/10 02:44:32;;;;;;;13.23;7.97;;;2.40;1.00;;;;;;5090452;28;20451;-62
2022/03/10 02:46:58;;;;;;;12.73;7.53;;;2.30;1.00;;;;;;5089957;28;20468;-62
2022/03/10 02:49:24;;;;;;;8.40;7.10;;;2.40;1.00;;;;;;5090245;28;20574;-63
2022/03/10 02:51:50;;;;;;;9.57;7.23;;;2.30;1.00;;;;;;5090652;28;20232;-63
2022/03/10 02:54:16;;;;;;;11.30;7.90;;;2.30;1.00;;;;;;5092288;28;20432;-63
2022/03/10 02:56:42;;;;;;;12.03;9.00;;;;;;;;;;5091149;28;20490;-63
2022/03/10 02:59:10;;;;;;;12.73;7.67;;;;;;;;;;5088855;28;20178;-62
2022/03/10 03:01:36;;;;;;;10.90;8.47;;;2.40;1.00;;;;;;5093387;28;20474;-62
2022/03/10 03:04:01;;;;;;;12.07;7.43;;;2.40;1.00;;;;;;5092615;28;20464;-62
2022/03/10 03:06:27;;;;;;;10.27;7.77;;;2.30;1.00;;;;;;5103121;28;20200;-61
2022/03/10 03:08:53;;;;;;;10.17;8.20;;;2.30;1.00;;;;;;5088458;28;20187;-63
2022/03/10 03:11:19;;;;;;;9.20;7.70;;;;;;;;;;5088686;28;20538;-61
2022/03/10 03:13:45;;;;;;;8.87;6.70;;;2.20;1.00;;;;;;5092381;28;20448;-62
2022/03/10 03:16:10;;;;;;;14.23;8.63;;;;;;;;;;5087891;28;20440;-62
2022/03/10 03:18:36;;;;;;;10.83;7.63;;;2.10;1.00;;;;;;5088820;28;20286;-62
2022/03/10 03:21:05;;;;;;;12.10;8.07;;;2.20;1.00;;;;;;5088925;28;20953;-62
2022/03/10 03:23:31;;;;;;;10.37;8.03;;;;;;;;;;5088275;28;20243;-62
2022/03/10 03:25:57;;;;;;;10.93;7.27;;;2.10;1.00;;;;;;5091733;28;20436;-62
2022/03/10 03:28:22;;;;;;;9.43;7.73;;;2.10;1.00;;;;;;5089415;28;20926;-61
2022/03/10 03:30:49;;;;;;;8.93;7.27;;;2.10;1.00;;;;;;5089738;28;20174;-62
2022/03/10 03:33:14;;;;;;;10.20;8.10;;;2.10;1.00;;;;;;5085809;28;20579;-63
2022/03/10 03:35:41;;;;;;;13.53;8.17;;;2.10;1.00;;;;;;5089602;28;20444;-63
2022/03/10 03:38:07;;;;;;;11.97;8.23;;;;;;;;;;5091522;28;20202;-63
2022/03/10 03:40:32;;;;;;;10.80;7.50;;;2.10;1.00;;;;;;5097786;28;20784;-62
2022/03/10 03:42:58;;;;;;;10.07;7.40;;;;;;;;;;5088079;28;20453;-62
2022/03/10 03:45:24;;;;;;;13.73;7.80;;;;;;;;;;5089847;28;20187;-62
2022/03/10 03:47:50;;;;;;;10.43;6.40;;;;;;;;;;5086296;28;20472;-62
2022/03/10 03:50:16;;;;;;;11.60;7.20;;;2.10;1.00;;;;;;5085596;28;20527;-62
2022/03/10 03:52:41;;;;;;;8.80;7.63;;;2.10;1.00;;;;;;5084514;28;20448;-61
2022/03/10 03:55:08;;;;;;;9.37;7.40;;;2.00;1.00;;;;;;5084637;28;20312;-62
2022/03/10 03:57:33;;;;;;;9.50;7.97;;;2.00;1.00;;;;;;5086965;28;20197;-63
2022/03/10 03:59:59;;;;;;;10.10;7.60;;;;;;;;;;5088670;28;20457;-63
2022/03/10 04:02:25;;;;;;;13.30;8.70;;;;;;;;;;5088807;28;20653;-63
2022/03/10 04:04:52;;;;;;;13.20;8.13;;;;;;;;;;5090203;28;20454;-62
2022/03/10 04:07:18;;;;;;;10.63;7.70;;;;;;;;;;5087036;28;20655;-62
2022/03/10 04:09:44;;;;;;;15.90;9.67;;;2.00;1.00;;;;;;5089731;28;20578;-62
2022/03/10 04:12:10;;;;;;;11.00;6.83;;;2.00;1.00;;;;;;5088724;28;20444;-61
2022/03/10 04:14:35;;;;;;;14.50;8.03;;;2.00;1.00;;;;;;5089359;28;20205;-62
2022/03/10 04:17:02;;;;;;;9.87;6.90;;;1.90;1.00;;;;;;5088677;28;20317;-61
2022/03/10 04:19:28;;;;;;;8.37;6.40;;;;;;;;;;5089163;28;20315;-62
2022/03/10 04:21:54;;;;;;;14.47;8.40;;;2.00;1.00;;;;;;5090218;28;21028;-62
2022/03/10 04:24:20;;;;;;;13.37;8.43;;;1.90;1.00;;;;;;5098370;28;20963;-62
2022/03/10 04:26:45;;;;;;;12.33;7.60;;;1.90;1.00;;;;;;5100881;28;20182;-62
2022/03/10 04:29:12;;;;;;;10.23;7.90;;;;;;;;;;5093562;28;20625;-63
2022/03/10 04:31:37;;;;;;;11.60;8.50;;;1.90;1.00;;;;;;5095061;28;20637;-63
2022/03/10 04:34:04;;;;;;;11.63;7.60;;;;;;;;;;5093720;28;20518;-62
2022/03/10 04:36:29;;;;;;;9.50;6.57;;;1.80;1.00;;;;;;5088167;28;20183;-62
2022/03/10 04:38:55;;;;;;;12.70;7.60;;;1.80;1.00;;;;;;5097027;28;20451;-63
2022/03/10 04:41:20;;;;;;;15.97;8.07;;;0.20;1.00;;;;;;5095121;28;20513;-63
2022/03/10 04:43:46;;;;;;;11.07;7.53;;;1.80;1.00;;;;;;5091844;28;20190;-62
2022/03/10 04:46:12;;;;;;;10.80;8.47;;;;;;;;;;5091717;28;20198;-62
2022/03/10 04:48:37;;;;;;;9.80;6.80;;;1.80;1.00;;;;;;5094112;28;20272;-63
2022/03/10 04:51:06;;;;;;;11.90;8.20;;;1.80;1.00;;;;;;5091924;28;20459;-61
2022/03/10 04:53:32;;;;;;;11.13;7.40;;;;;;;;;;5091996;28;20296;-61
2022/03/10 04:55:57;;;;;;;12.90;8.40;;;1.70;1.00;;;;;;5092338;28;20428;-61
2022/03/10 04:58:23;;;;;;;8.80;6.93;;;;;;;;;;5095984;28;20197;-62
2022/03/10 05:00:49;;;;;;;10.10;8.00;;;1.70;1.00;;;;;;5092833;28;20206;-64
2022/03/10 05:03:15;;;;;;;10.67;7.83;;;1.80;1.00;;;;;;5097191;28;20952;-65
2022/03/10 05:05:40;;;;;;;12.77;7.80;;;1.80;1.00;;;;;;5096045;28;20182;-64
2022/03/10 05:08:06;;;;;;;10.70;8.37;;;1.90;1.00;;;;;;5095299;28;20571;-63
2022/03/10 05:10:32;;;;;;;10.03;8.70;;;;;;;;;;5092289;28;20205;-64
2022/03/10 05:13:01;;;;;;;13.40;9.40;;;1.70;1.00;;;;;;5100235;28;20265;-63
2022/03/10 05:15:31;;;;;;;14.63;7.97;;;1.70;1.00;;;;;;5091859;28;20986;-63
2022/03/10 05:17:58;;;;;;;10.90;8.00;;;1.60;1.00;;;;;;5093209;28;20497;-59
2022/03/10 05:20:26;;;;;;;11.20;7.80;;;1.60;1.00;;;;;;5092965;28;20467;-60
2022/03/10 05:22:56;;;;;;;9.90;8.50;;;1.50;1.00;;;;;;5096013;28;20444;-60
2022/03/10 05:25:24;;;;;;;10.90;8.07;;;1.50;1.00;;;;;;5092202;28;20513;-61
2022/03/10 05:27:51;;;;;;;12.70;8.47;;;1.50;1.00;;;;;;5092957;28;20468;-59
2022/03/10 05:30:18;;;;;;;11.50;8.13;;;1.60;1.00;;;;;;5091288;28;21109;-60
2022/03/10 05:32:44;;;;;;;10.97;8.47;;;;;;;;;;5097175;28;20474;-60
2022/03/10 05:35:11;;;;;;;11.60;9.00;;;1.60;1.00;;;;;;5092623;28;20944;-60
2022/03/10 05:37:38;;;;;;;12.63;8.77;;;1.60;1.00;;;;;;5092257;28;20484;-61
2022/03/10 05:40:10;;;;;;;12.17;8.20;;;1.60;1.00;;;;;;5091920;28;20852;-61
2022/03/10 05:42:40;;;;;;;15.73;8.60;;;1.60;1.00;;;;;;5094107;28;20451;-61
2022/03/10 05:45:08;;;;;;;12.57;8.90;;;1.60;1.00;;;;;;5095170;28;20519;-61
2022/03/10 05:47:35;;;;;;;12.30;8.00;;;;;;;;;;5092225;28;20514;-61
2022/03/10 05:50:04;;;;;;;13.50;7.70;;;1.60;1.00;;;;;;5091629;28;20439;-61
2022/03/10 05:52:29;;;;;;;10.83;8.60;;;1.70;1.00;;;;;;5091329;28;20428;-61
2022/03/10 05:54:55;;;;;;;11.87;8.13;;;1.60;1.00;;;;;;5092016;28;20767;-61
2022/03/10 05:57:20;;;;;;;12.40;8.60;;;1.70;1.00;;;;;;5090614;28;20187;-59
2022/03/10 05:59:46;;;;;;;10.90;8.40;;;1.70;1.00;;;;;;5091304;28;20187;-60
2022/03/10 06:02:12;;;;;;;14.33;8.33;;;1.70;1.00;;;;;;5092144;28;20262;-61
2022/03/10 06:04:37;;;;;;;13.17;8.80;;;1.70;1.00;;;;;;5101773;28;20198;-60
2022/03/10 06:07:03;;;;;;;11.50;7.07;;;1.70;1.00;;;;;;5090637;28;20198;-61
2022/03/10 06:09:28;;;;;;;11.70;8.13;;;1.80;1.00;;;;;;5102468;28;20183;-61
2022/03/10 06:11:54;;;;;;;15.33;8.63;;;1.80;1.00;;;;;;5091641;28;20671;-59
2022/03/10 06:14:20;;;;;;;11.00;9.30;;;1.90;1.00;;;;;;5091402;28;20171;-60
2022/03/10 06:16:45;;;;;;;16.93;9.20;;;-0.40;1.00;;;;;;5091291;28;20505;-59
2022/03/10 06:19:11;;;;;;;11.10;8.30;;;2.00;1.00;;;;;;5091102;28;20240;-62
2022/03/10 06:21:38;;;;;;;10.07;7.90;;;;;;;;;;5091276;28;20189;-60
2022/03/10 06:24:04;;;;;;;12.80;8.47;;;2.10;1.00;;;;;;5091548;28;20179;-60
2022/03/10 06:26:30;;;;;;;10.93;8.27;;;2.10;1.00;;;;;;5089210;28;20437;-61
2022/03/10 06:28:56;;;;;;;11.07;8.40;;;2.30;1.00;;;;;;5090875;28;20791;-63
2022/03/10 06:31:23;;;;;;;13.53;8.60;;;2.20;1.00;;;;;;5091132;28;20226;-60
2022/03/10 06:33:49;;;;;;;11.27;8.43;;;;;;;;;;5090942;28;20254;-61
2022/03/10 06:36:14;;;;;;;14.93;8.47;;;2.40;1.00;;;;;;5090562;28;20453;-61
2022/03/10 06:38:40;;;;;;;10.20;8.00;;;2.30;1.00;;;;;;5090828;28;20457;-62
2022/03/10 06:41:07;;;;;;;12.37;8.07;;;2.40;1.00;;;;;;5091096;28;20585;-61
2022/03/10 06:43:33;;;;;;;9.27;7.80;;;;;;;;;;5090711;28;20257;-61
2022/03/10 06:45:58;;;;;;;11.03;8.37;;;2.60;1.00;;;;;;5088132;28;20460;-60
2022/03/10 06:48:23;;;;;;;10.60;8.27;;;2.70;1.00;;;;;;5091225;28;20482;-62
2022/03/10 06:50:49;;;;;;;17.07;9.00;;;2.70;1.00;;;;;;5090615;28;20187;-63
2022/03/10 06:53:15;;;;;;;9.30;7.67;;;2.70;1.00;;;;;;5090700;28;21123;-61
2022/03/10 06:55:40;;;;;;;10.87;8.10;;;2.90;1.00;;;;;;5091208;28;20210;-62
2022/03/10 06:58:06;;;;;;;11.80;8.63;;;;;;;;;;5090232;28;20701;-61
2022/03/10 07:00:32;;;;;;;11.10;7.97;;;;;;;;;;5098057;28;20178;-60
2022/03/10 07:02:58;;;;;;;16.73;9.13;;;3.10;1.00;;;;;;5090572;28;20925;-61
2022/03/10 07:05:24;;;;;;;11.77;8.23;;;;;;;;;;5089339;28;21076;-60
2022/03/10 07:07:49;;;;;;;15.83;9.03;;;3.40;1.00;;;;;;5090928;28;20740;-60
2022/03/10 07:10:15;;;;;;;14.33;8.63;;;3.40;1.00;;;;;;5090126;28;20994;-62
2022/03/10 07:12:42;;;;;;;15.30;8.90;;;3.50;1.00;;;;;;5090530;28;20428;-62
2022/03/10 07:15:11;;;;;;;18.20;10.10;;;3.50;1.00;;;;;;5090210;28;20452;-62
2022/03/10 07:17:41;;;;;;;10.80;7.37;;;3.60;1.00;;;;;;5090820;28;20454;-62
2022/03/10 07:20:07;;;;;;;12.10;8.70;;;3.80;1.00;;;;;;5091800;28;20445;-62
2022/03/10 07:22:33;;;;;;;12.37;9.30;;;3.90;1.00;;;;;;5093636;28;20445;-60
2022/03/10 07:24:58;;;;;;;12.57;8.93;;;4.20;1.00;;;;;;5096230;28;20519;-62
2022/03/10 07:27:24;;;;;;;12.30;8.67;;;4.50;1.00;;;;;;5096868;28;21021;-61
2022/03/10 07:29:50;;;;;;;11.60;9.30;;;4.80;1.00;;;;;;5090571;28;20198;-61
2022/03/10 07:32:15;;;;;;;11.93;8.47;;;4.80;1.00;;;;;;5089377;28;20571;-62
2022/03/10 07:34:41;;;;;;;13.27;9.27;;;4.80;1.00;;;;;;5090276;28;20202;-62
2022/03/10 07:37:07;;;;;;;15.63;9.90;;;;;;;;;;5090510;28;20638;-62
2022/03/10 07:39:32;;;;;;;16.10;10.10;;;4.80;1.00;;;;;;5089117;28;20674;-62
2022/03/10 07:42:00;;;;;;;13.63;8.87;;;;;;;;;;5089903;28;20528;-62
2022/03/10 07:44:26;;;;;;;12.80;10.10;;;5.10;1.00;;;;;;5090253;28;20604;-60
2022/03/10 07:46:51;;;;;;;17.07;10.67;;;5.20;1.00;;;;;;5090023;28;20543;-62
2022/03/10 07:49:17;;;;;;;12.43;9.87;;;5.30;1.00;;;;;;5088853;28;20182;-61
2022/03/10 07:51:44;;;;;;;13.60;10.23;;;5.40;1.00;;;;;;5089965;28;20536;-61
2022/03/10 07:54:10;;;;;;;15.57;10.63;;;5.50;1.00;;;;;;5090039;28;20171;-61
2022/03/10 07:56:36;;;;;;;12.90;10.27;;;5.60;1.00;;;;;;5089431;28;20436;-61
2022/03/10 07:59:01;;;;;;;18.53;10.03;;;5.60;1.00;;;;;;5089595;28;20436;-61
2022/03/10 08:01:27;;;;;;;14.50;10.60;;;5.70;1.00;;;;;;5090067;28;20187;-61
2022/03/10 08:03:53;;;;;;;14.00;10.10;;;5.70;1.00;;;;;;5089293;28;20544;-61
2022/03/10 08:06:18;;;;;;;16.57;11.37;;;5.90;1.00;;;;;;5089889;28;20198;-61
2022/03/10 08:08:44;;;;;;;12.90;9.97;;;6.10;1.00;;;;;;5088448;28;20290;-61
2022/03/10 08:11:10;;;;;;;12.23;9.60;;;6.30;1.00;;;;;;5088831;28;20175;-60
2022/03/10 08:13:36;;;;;;;13.30;10.63;;;6.40;1.00;;;;;;5089387;28;20232;-61
2022/03/10 08:16:04;;;;;;;14.43;10.23;;;6.50;1.00;;;;;;5090074;28;20432;-60
2022/03/10 08:18:30;;;;;;;13.03;10.07;;;6.50;1.00;;;;;;5089582;28;20220;-60
2022/03/10 08:20:59;;;;;;;17.53;9.80;;;6.50;1.00;;;;;;5088354;28;20437;-59
2022/03/10 08:23:26;;;;;;;15.87;10.80;;;9.30;1.00;;;;;;5087128;28;20803;-60
2022/03/10 08:25:52;;;;;;;14.43;10.40;;;6.70;1.00;;;;;;5088719;28;20444;-60
2022/03/10 08:28:18;;;;;;;20.77;10.30;;;6.80;1.00;;;;;;5089433;28;20487;-60
2022/03/10 08:30:44;;;;;;;12.60;9.73;;;;;;;;;;5089300;28;20530;-61
2022/03/10 08:33:10;;;;;;;13.10;9.80;;;7.00;1.00;;;;;;5089251;28;21078;-60
2022/03/10 08:35:36;;;;;;;11.90;10.10;;;;;;;;;;5089264;28;20523;-61
2022/03/10 08:38:02;;;;;;;16.67;11.30;;;;;;;;;;5089048;28;20643;-62
2022/03/10 08:40:28;;;;;;;16.20;10.90;;;;;;;;;;5085942;28;20436;-59
2022/03/10 08:42:54;;;;;;;14.03;10.20;;;8.00;1.00;;;;;;5089560;28;20460;-59
2022/03/10 08:45:21;;;;;;;16.10;11.90;;;8.20;1.00;;;;;;5092810;28;20448;-59
2022/03/10 08:47:48;;;;;;;16.90;11.50;;;8.30;1.00;;;;;;5091606;28;20468;-59
2022/03/10 08:50:13;;;;;;;16.07;11.07;;;8.40;1.00;;;;;;5093042;28;20573;-59
2022/03/10 08:52:39;;;;;;;15.13;10.23;;;8.50;1.00;;;;;;5093395;28;20796;-60
2022/03/10 08:55:06;;;;;;;15.70;10.90;;;8.50;1.00;;;;;;5092818;28;20195;-61
2022/03/10 08:57:32;;;;;;;13.93;10.50;;;8.70;1.00;;;;;;5093560;28;20817;-60
2022/03/10 08:59:58;;;;;;;18.37;9.80;;;;;;;;;;5093140;28;21809;-60
2022/03/10 09:02:24;;;;;;;15.40;10.43;;;8.90;1.00;;;;;;5094210;28;20448;-60
2022/03/10 09:04:50;;;;;;;15.67;10.47;;;9.00;1.00;;;;;;5095530;28;21089;-61
2022/03/10 09:07:16;;;;;;;16.20;10.97;;;9.10;1.00;;;;;;5102131;28;20242;-60
2022/03/10 09:09:42;;;;;;;14.77;9.10;;;;;;;;;;5093190;28;20498;-60
2022/03/10 09:12:08;;;;;;;15.90;11.20;;;;;;;;;;5092445;28;20527;-59
2022/03/10 09:14:34;;;;;;;15.47;11.23;;;9.60;1.00;;;;;;5092943;28;20445;-60
2022/03/10 09:17:00;;;;;;;14.20;9.70;;;;;;;;;;5093476;28;20520;-61
2022/03/10 09:19:26;;;;;;;12.40;9.80;;;;;;;;;;5091780;28;20685;-61
2022/03/10 09:21:52;;;;;;;15.70;10.47;;;9.70;1.00;;;;;;5092692;28;20439;-61
2022/03/10 09:24:18;;;;;;;19.30;10.53;;;9.90;1.00;;;;;;5093111;28;20493;-60
2022/03/10 09:26:44;;;;;;;12.00;9.80;;;10.10;1.00;;;;;;5092844;28;20443;-60
2022/03/10 09:29:09;;;;;;;17.20;11.20;;;10.40;1.00;;;;;;5092556;28;20635;-60
2022/03/10 09:31:35;;;;;;;15.87;10.90;;;10.50;1.00;;;;;;5091876;28;20214;-61
2022/03/10 09:34:01;;;;;;;15.13;10.97;;;;;;;;;;5093923;28;20182;-62
2022/03/10 09:36:27;;;;;;;18.70;12.50;;;10.70;1.00;;;;;;5091878;28;20178;-60
2022/03/10 09:38:55;;;;;;;22.20;10.63;;;10.70;1.00;;;;;;5092804;28;20947;-61
2022/03/10 09:41:20;;;;;;;19.07;11.77;;;10.90;1.00;;;;;;5094248;28;20533;-61
2022/03/10 09:43:48;;;;;;;15.23;10.77;;;11.10;1.00;;;;;;5092166;28;20441;-61
2022/03/10 09:46:14;;;;;;;14.10;11.00;;;11.30;1.00;;;;;;5092430;28;20198;-60
2022/03/10 09:48:40;;;;;;;18.90;11.30;;;11.50;1.00;;;;;;5091838;28;20976;-61
2022/03/10 09:51:07;;;;;;;13.83;9.70;;;11.60;1.00;;;;;;5092853;28;20471;-61
2022/03/10 09:53:34;;;;;;;13.00;9.97;;;11.50;1.00;;;;;;5097091;28;20437;-60
2022/03/10 09:56:02;;;;;;;14.73;9.77;;;11.40;1.00;;;;;;5091494;28;21167;-60
2022/03/10 09:58:31;;;;;;;13.83;10.80;;;11.20;1.00;;;;;;5091333;28;20441;-60
2022/03/10 10:01:14;;;;;;;12.40;9.83;;;11.20;1.00;;;;;;5089764;28;20472;-60
2022/03/10 10:03:40;;;;;;;11.73;9.53;;;11.30;1.00;;;;;;5091108;28;20448;-61
2022/03/10 10:06:06;;;;;;;15.10;9.67;;;11.50;1.00;;;;;;5091885;28;20445;-60
2022/03/10 10:08:34;;;;;;;14.20;9.60;;;11.50;1.00;;;;;;5091634;28;20218;-61
2022/03/10 10:11:00;;;;;;;19.20;9.67;;;11.70;1.00;;;;;;5092121;28;20183;-61
2022/03/10 10:13:30;;;;;;;11.67;9.37;;;12.00;1.00;;;;;;5091491;28;20424;-62
2022/03/10 10:16:07;;;;;;;10.63;7.70;;;12.10;1.00;;;;;;5093499;28;23099;-61
2022/03/10 10:18:34;;;;;;;10.57;7.27;;;12.10;1.00;;;;;;5090124;28;20422;-60
2022/03/10 10:21:03;;;;;;;9.20;7.07;;;12.20;1.00;;;;;;5103933;28;20442;-59
2022/03/10 10:23:35;;;;;;;9.97;7.60;;;12.40;1.00;;;;;;5098201;28;20461;-60
2022/03/10 10:26:06;;;;;;;12.37;7.03;;;12.40;1.00;;;;;;5089490;28;20540;-59
2022/03/10 10:28:36;;;;;;;9.23;7.47;;;12.50;1.00;;;;;;5091334;28;20464;-61
2022/03/10 10:31:13;;;;;;;11.07;8.30;;;12.80;1.00;;;;;;5089332;28;20443;-62
2022/03/10 10:33:41;;;;;;;9.10;7.07;;;12.70;1.00;;;;;;5098854;28;20485;-61
2022/03/10 10:36:16;;;;;;;11.10;7.30;;;12.50;1.00;;;;;;5090837;28;20957;-62
2022/03/10 10:38:44;;;;;;;8.90;6.97;;;12.60;1.00;;;;;;5103165;28;20500;-62
2022/03/10 10:41:26;;;;;;;7.63;6.30;;;12.40;1.00;;;;;;5096540;28;20514;-60
2022/03/10 10:43:58;;;;;;;7.30;5.70;;;12.40;1.00;;;;;;5087676;28;20958;-62
2022/03/10 10:46:39;;;;;;;9.43;6.13;;;12.50;1.00;;;;;;5105958;28;21047;-61
2022/03/10 10:49:08;;;;;;;7.17;6.07;;;12.50;1.00;;;;;;5091945;28;21007;-62
2022/03/10 10:51:40;;;;;;;8.83;5.57;;;12.70;1.00;;;;;;5091476;28;20490;-61
2022/03/10 10:54:09;;;;;;;7.80;6.17;;;12.50;1.00;;;;;;5104501;28;20772;-64
2022/03/10 10:56:35;;;;;;;8.43;6.07;;;12.20;1.00;;;;;;5108056;28;20417;-64
2022/03/10 10:59:02;;;;;;;7.23;5.40;;;12.10;1.00;;;;;;5110863;28;20465;-64
2022/03/10 11:01:46;;;;;;;10.17;6.33;;;12.10;1.00;;;;;;5097825;28;20437;-63
2022/03/10 11:04:12;;;;;;;8.90;6.00;;;12.30;1.00;;;;;;5092529;28;20437;-65
2022/03/10 11:06:38;;;;;;;10.00;6.90;;;12.60;1.00;;;;;;5105294;28;20538;-63
2022/03/10 11:09:04;;;;;;;8.57;5.90;;;12.70;1.00;;;;;;5102216;28;20206;-62
2022/03/10 11:11:30;;;;;;;6.70;5.47;;;12.80;1.00;;;;;;5107724;28;20842;-62
2022/03/10 11:13:56;;;;;;;7.03;5.47;;;12.90;1.00;;;;;;5113539;28;20206;-62
2022/03/10 11:16:22;;;;;;;8.73;6.27;;;12.90;1.00;;;;;;5113477;28;20463;-62
2022/03/10 11:18:52;;;;;;;9.70;5.87;;;12.70;1.00;;;;;;5113767;28;20189;-62
2022/03/10 11:21:45;;;;;;;8.67;6.40;;;12.40;1.00;;;;;;5102144;28;20432;-62
2022/03/10 11:24:42;;;;;;;9.53;6.40;;;12.30;1.00;;;;;;5110353;28;20996;-63
2022/03/10 11:27:16;;;;;;;9.83;6.53;;;12.30;1.00;;;;;;5113672;28;20462;-62
2022/03/10 11:29:47;;;;;;;7.50;6.10;;;12.30;1.00;;;;;;5106691;28;20516;-63
2022/03/10 11:32:13;;;;;;;6.73;5.50;;;12.40;1.00;;;;;;5099517;28;20434;-63
2022/03/10 11:34:46;;;;;;;9.40;6.27;;;12.50;1.00;;;;;;5093165;28;20457;-64
2022/03/10 11:37:12;;;;;;;9.30;5.50;;;12.90;1.00;;;;;;5093023;28;20428;-63
2022/03/10 11:39:54;;;;;;;6.90;6.07;;;13.10;1.00;;;;;;5095688;28;20443;-62
2022/03/10 11:42:29;;;;;;;9.10;6.70;;;13.10;1.00;;;;;;5109826;28;20436;-62
2022/03/10 11:45:16;;;;;;;8.40;6.37;;;12.60;1.00;;;;;;5105571;28;20439;-62
2022/03/10 11:47:43;;;;;;;7.47;6.37;;;12.60;1.00;;;;;;5097941;28;20480;-63
2022/03/10 11:50:20;;;;;;;7.40;5.90;;;12.60;1.00;;;;;;5091501;28;20436;-63
2022/03/10 11:52:59;;;;;;;8.90;6.60;;;12.90;1.00;;;;;;5093094;28;20485;-63
2022/03/10 11:55:51;;;;;;;7.93;7.10;;;12.90;1.00;;;;;;5099316;28;20418;-63
2022/03/10 11:58:29;;;;;;;7.13;5.80;;;12.50;1.00;;;;;;5093304;28;20489;-63
2022/03/10 12:00:58;;;;;;;8.10;6.13;;;12.40;1.00;;;;;;5093652;28;20433;-63
2022/03/10 12:03:34;;;;;;;9.37;7.57;;;12.60;1.00;;;;;;5098515;28;20437;-62
2022/03/10 12:06:04;;;;;;;8.60;6.70;;;12.70;1.00;;;;;;5103371;28;20552;-63
2022/03/10 12:08:31;;;;;;;10.87;7.40;;;12.60;1.00;;;;;;5106143;28;20467;-62
2022/03/10 12:11:04;;;;;;;7.70;5.80;;;12.70;1.00;;;;;;5102131;28;20516;-62
2022/03/10 12:13:34;;;;;;;8.07;6.00;;;12.90;1.00;;;;;;5096493;28;20428;-65
2022/03/10 12:16:04;;;;;;;8.37;7.00;;;13.00;1.00;;;;;;5092396;28;20436;-64
2022/03/10 12:18:31;;;;;;;7.70;6.57;;;12.90;1.00;;;;;;5094681;28;20923;-64
2022/03/10 12:20:57;;;;;;;10.90;6.50;;;12.80;1.00;;;;;;5109053;28;20960;-63
2022/03/10 12:23:27;;;;;;;6.63;5.80;;;12.70;1.00;;;;;;5115236;28;20480;-64
2022/03/10 12:26:07;;;;;;;13.00;7.07;;;12.60;1.00;;;;;;5102090;28;20437;-63
2022/03/10 12:28:38;;;;;;;12.17;8.30;;;12.70;1.00;;;;;;5100406;28;20550;-63
2022/03/10 12:31:11;;;;;;;11.37;8.90;;;12.60;1.00;;;;;;5097352;28;20436;-64
2022/03/10 12:33:57;;;;;;;12.77;9.80;;;12.70;1.00;;;;;;5094117;28;20436;-64
2022/03/10 12:36:35;;;;;;;11.90;9.67;;;12.50;1.00;;;;;;5093721;28;20929;-63
2022/03/10 12:39:21;;;;;;;14.10;9.30;;;12.70;1.00;;;;;;5093269;28;20418;-64
2022/03/10 12:41:50;;;;;;;14.00;10.03;;;12.90;1.00;;;;;;5110600;28;20522;-64
2022/03/10 13:01:08;;;;;;;12.90;10.30;;;13.00;1.00;;;;;;4963984;27;3583570;-60
2022/03/10 13:03:48;;;;;;;13.63;9.77;;;13.00;1.00;;;;;;5089357;28;20265;-58
2022/03/10 13:06:18;;;;;;;11.43;9.33;;;13.00;1.00;;;;;;5089790;28;20505;-58
2022/03/10 13:08:53;;;;;;;14.50;9.40;;;13.10;1.00;;;;;;5089590;28;20484;-60
2022/03/10 13:11:29;;;;;;;12.00;8.80;;;13.20;1.00;;;;;;5089265;28;20451;-58
2022/03/10 13:14:10;;;;;;;16.50;9.60;;;13.20;1.00;;;;;;5089343;28;20444;-59
2022/03/10 13:16:38;;;;;;;12.47;9.30;;;12.80;1.00;;;;;;5085561;28;20901;-59
2022/03/10 13:19:04;;;;;;;15.10;10.10;;;12.80;1.00;;;;;;5087984;28;20429;-61
2022/03/10 13:21:30;;;;;;;17.00;10.23;;;12.60;1.00;;;;;;5089299;28;20407;-58
2022/03/10 13:23:56;;;;;;;13.00;10.37;;;12.80;1.00;;;;;;5088872;28;20479;-58
2022/03/10 13:26:24;;;;;;;14.90;10.07;;;12.90;1.00;;;;;;5088930;28;20462;-60
2022/03/10 13:28:50;;;;;;;21.83;10.40;;;12.70;1.00;;;;;;5089018;28;20195;-59
2022/03/10 13:31:17;;;;;;;19.10;11.73;;;12.80;1.00;;;;;;5089099;28;20425;-59
2022/03/10 13:33:44;;;;;;;17.03;12.53;;;12.70;1.00;;;;;;5089000;28;21017;-58